sensor_id;sensor_type;location;lat;lon;timestamp;temperature;humidity
19536;HTU21D;9913;51.168;4.124;2023-06-24T00:00:26;17.29;82.99
19536;HTU21D;9913;51.168;4.124;2023-06-24T00:02:54;17.29;82.91
19536;HTU21D;9913;51.168;4.124;2023-06-24T00:05:24;17.28;82.86
19536;HTU21D;9913;51.168;4.124;2023-06-24T00:07:52;17.25;83.02
19536;HTU21D;9913;51.168;4.124;2023-06-24T00:10:25;17.21;83.02
19536;HTU21D;9913;51.168;4.124;2023-06-24T00:12:53;17.17;83.13
19536;HTU21D;9913;51.168;4.124;2023-06-24T00:15:22;17.24;82.89
19536;HTU21D;9913;51.168;4.124;2023-06-24T00:17:50;17.09;82.94
19536;HTU21D;9913;51.168;4.124;2023-06-24T00:20:19;16.94;83.36
19536;HTU21D;9913;51.168;4.124;2023-06-24T00:22:47;16.99;83.24
19536;HTU21D;9913;51.168;4.124;2023-06-24T00:25:16;16.89;83.38
19536;HTU21D;9913;51.168;4.124;2023-06-24T00:27:46;16.82;83.32
19536;HTU21D;9913;51.168;4.124;2023-06-24T00:30:14;16.87;83.41
19536;HTU21D;9913;51.168;4.124;2023-06-24T00:32:43;16.79;83.56
19536;HTU21D;9913;51.168;4.124;2023-06-24T00:35:11;16.73;83.51
19536;HTU21D;9913;51.168;4.124;2023-06-24T00:37:40;16.78;83.67
19536;HTU21D;9913;51.168;4.124;2023-06-24T00:40:09;16.72;83.39
19536;HTU21D;9913;51.168;4.124;2023-06-24T00:42:42;16.77;83.48
19536;HTU21D;9913;51.168;4.124;2023-06-24T00:45:13;16.77;83.46
19536;HTU21D;9913;51.168;4.124;2023-06-24T00:47:43;16.75;83.32
19536;HTU21D;9913;51.168;4.124;2023-06-24T00:50:12;16.62;83.16
19536;HTU21D;9913;51.168;4.124;2023-06-24T00:52:40;16.72;82.89
19536;HTU21D;9913;51.168;4.124;2023-06-24T00:55:10;16.67;83.42
19536;HTU21D;9913;51.168;4.124;2023-06-24T00:57:40;16.59;83.13
19536;HTU21D;9913;51.168;4.124;2023-06-24T01:00:09;16.42;83.49
19536;HTU21D;9913;51.168;4.124;2023-06-24T01:02:42;16.59;83.48
19536;HTU21D;9913;51.168;4.124;2023-06-24T01:05:11;16.58;83.31
19536;HTU21D;9913;51.168;4.124;2023-06-24T01:07:40;16.58;82.99
19536;HTU21D;9913;51.168;4.124;2023-06-24T01:10:10;16.52;83.02
19536;HTU21D;9913;51.168;4.124;2023-06-24T01:12:41;16.50;82.70
19536;HTU21D;9913;51.168;4.124;2023-06-24T01:15:11;16.43;82.77
19536;HTU21D;9913;51.168;4.124;2023-06-24T01:17:46;16.43;82.78
19536;HTU21D;9913;51.168;4.124;2023-06-24T01:20:21;16.39;83.10
19536;HTU21D;9913;51.168;4.124;2023-06-24T01:26:09;16.48;82.33
19536;HTU21D;9913;51.168;4.124;2023-06-24T01:29:02;16.32;82.69
19536;HTU21D;9913;51.168;4.124;2023-06-24T01:31:41;16.35;82.62
19536;HTU21D;9913;51.168;4.124;2023-06-24T01:34:17;16.36;82.28
19536;HTU21D;9913;51.168;4.124;2023-06-24T01:36:58;16.30;82.55
19536;HTU21D;9913;51.168;4.124;2023-06-24T01:39:31;16.31;82.11
19536;HTU21D;9913;51.168;4.124;2023-06-24T01:42:08;16.17;82.20
19536;HTU21D;9913;51.168;4.124;2023-06-24T01:44:39;16.28;82.49
19536;HTU21D;9913;51.168;4.124;2023-06-24T01:47:11;16.24;82.21
19536;HTU21D;9913;51.168;4.124;2023-06-24T01:49:43;16.30;82.35
19536;HTU21D;9913;51.168;4.124;2023-06-24T01:52:13;16.14;82.26
19536;HTU21D;9913;51.168;4.124;2023-06-24T01:54:42;16.04;82.13
19536;HTU21D;9913;51.168;4.124;2023-06-24T01:57:13;16.16;82.42
19536;HTU21D;9913;51.168;4.124;2023-06-24T01:59:45;16.11;82.23
19536;HTU21D;9913;51.168;4.124;2023-06-24T02:02:16;16.16;82.44
19536;HTU21D;9913;51.168;4.124;2023-06-24T02:04:48;16.08;82.27
19536;HTU21D;9913;51.168;4.124;2023-06-24T02:07:18;15.92;82.73
19536;HTU21D;9913;51.168;4.124;2023-06-24T02:09:49;15.93;82.95
19536;HTU21D;9913;51.168;4.124;2023-06-24T02:12:19;15.96;82.67
19536;HTU21D;9913;51.168;4.124;2023-06-24T02:14:49;15.85;82.72
19536;HTU21D;9913;51.168;4.124;2023-06-24T02:17:20;15.83;82.71
19536;HTU21D;9913;51.168;4.124;2023-06-24T02:19:50;15.84;82.85
19536;HTU21D;9913;51.168;4.124;2023-06-24T02:22:20;15.78;82.81
19536;HTU21D;9913;51.168;4.124;2023-06-24T02:24:52;15.90;83.11
19536;HTU21D;9913;51.168;4.124;2023-06-24T02:27:23;15.81;83.40
19536;HTU21D;9913;51.168;4.124;2023-06-24T02:29:52;15.70;82.85
19536;HTU21D;9913;51.168;4.124;2023-06-24T02:32:22;15.74;83.32
19536;HTU21D;9913;51.168;4.124;2023-06-24T02:34:52;15.65;83.20
19536;HTU21D;9913;51.168;4.124;2023-06-24T02:37:20;15.72;82.93
19536;HTU21D;9913;51.168;4.124;2023-06-24T02:39:49;15.63;83.35
19536;HTU21D;9913;51.168;4.124;2023-06-24T02:42:17;15.51;83.13
19536;HTU21D;9913;51.168;4.124;2023-06-24T02:44:46;15.68;82.93
19536;HTU21D;9913;51.168;4.124;2023-06-24T02:47:15;15.69;83.03
19536;HTU21D;9913;51.168;4.124;2023-06-24T02:49:46;15.51;82.88
19536;HTU21D;9913;51.168;4.124;2023-06-24T02:52:15;15.53;83.23
19536;HTU21D;9913;51.168;4.124;2023-06-24T02:54:44;15.45;83.49
19536;HTU21D;9913;51.168;4.124;2023-06-24T02:57:22;15.44;83.10
19536;HTU21D;9913;51.168;4.124;2023-06-24T03:00:13;15.60;82.94
19536;HTU21D;9913;51.168;4.124;2023-06-24T03:03:08;15.56;83.33
19536;HTU21D;9913;51.168;4.124;2023-06-24T03:05:56;15.56;83.36
19536;HTU21D;9913;51.168;4.124;2023-06-24T03:08:28;15.68;83.15
19536;HTU21D;9913;51.168;4.124;2023-06-24T03:10:57;15.43;83.23
19536;HTU21D;9913;51.168;4.124;2023-06-24T03:13:29;15.45;83.61
19536;HTU21D;9913;51.168;4.124;2023-06-24T03:16:08;15.41;83.45
19536;HTU21D;9913;51.168;4.124;2023-06-24T03:18:47;15.43;83.78
19536;HTU21D;9913;51.168;4.124;2023-06-24T03:21:17;15.36;83.97
19536;HTU21D;9913;51.168;4.124;2023-06-24T03:23:46;15.40;83.70
19536;HTU21D;9913;51.168;4.124;2023-06-24T03:26:15;15.28;83.86
19536;HTU21D;9913;51.168;4.124;2023-06-24T03:28:45;15.29;83.69
19536;HTU21D;9913;51.168;4.124;2023-06-24T03:31:18;15.24;84.10
19536;HTU21D;9913;51.168;4.124;2023-06-24T03:33:50;15.22;84.15
19536;HTU21D;9913;51.168;4.124;2023-06-24T03:36:21;15.24;84.20
19536;HTU21D;9913;51.168;4.124;2023-06-24T03:38:51;15.32;84.07
19536;HTU21D;9913;51.168;4.124;2023-06-24T03:41:19;15.33;83.68
19536;HTU21D;9913;51.168;4.124;2023-06-24T03:43:48;15.24;83.90
19536;HTU21D;9913;51.168;4.124;2023-06-24T03:46:17;15.36;83.45
19536;HTU21D;9913;51.168;4.124;2023-06-24T03:48:49;15.11;84.06
19536;HTU21D;9913;51.168;4.124;2023-06-24T03:51:20;15.22;83.91
19536;HTU21D;9913;51.168;4.124;2023-06-24T03:53:48;15.36;84.03
19536;HTU21D;9913;51.168;4.124;2023-06-24T03:56:18;15.21;83.79
19536;HTU21D;9913;51.168;4.124;2023-06-24T03:58:46;15.27;83.82
19536;HTU21D;9913;51.168;4.124;2023-06-24T04:01:15;15.16;83.88
19536;HTU21D;9913;51.168;4.124;2023-06-24T04:03:46;15.22;84.27
19536;HTU21D;9913;51.168;4.124;2023-06-24T04:06:14;15.38;84.13
19536;HTU21D;9913;51.168;4.124;2023-06-24T04:08:44;15.44;84.03
19536;HTU21D;9913;51.168;4.124;2023-06-24T04:11:15;15.41;84.04
19536;HTU21D;9913;51.168;4.124;2023-06-24T04:13:44;15.45;83.98
19536;HTU21D;9913;51.168;4.124;2023-06-24T04:16:13;15.58;83.35
19536;HTU21D;9913;51.168;4.124;2023-06-24T04:18:41;15.68;83.00
19536;HTU21D;9913;51.168;4.124;2023-06-24T04:21:09;15.59;83.10
19536;HTU21D;9913;51.168;4.124;2023-06-24T04:23:38;15.72;82.95
19536;HTU21D;9913;51.168;4.124;2023-06-24T04:26:07;15.84;82.42
19536;HTU21D;9913;51.168;4.124;2023-06-24T04:28:37;15.91;82.94
19536;HTU21D;9913;51.168;4.124;2023-06-24T04:31:07;15.97;82.49
19536;HTU21D;9913;51.168;4.124;2023-06-24T04:33:35;16.10;82.10
19536;HTU21D;9913;51.168;4.124;2023-06-24T04:36:04;15.98;82.16
19536;HTU21D;9913;51.168;4.124;2023-06-24T04:38:33;16.11;82.29
19536;HTU21D;9913;51.168;4.124;2023-06-24T04:41:01;16.27;82.17
19536;HTU21D;9913;51.168;4.124;2023-06-24T04:43:31;16.06;82.42
19536;HTU21D;9913;51.168;4.124;2023-06-24T04:46:00;16.26;82.32
19536;HTU21D;9913;51.168;4.124;2023-06-24T04:48:28;16.45;81.92
19536;HTU21D;9913;51.168;4.124;2023-06-24T04:50:56;16.37;81.74
19536;HTU21D;9913;51.168;4.124;2023-06-24T04:53:25;16.34;82.10
19536;HTU21D;9913;51.168;4.124;2023-06-24T04:55:53;16.34;82.22
19536;HTU21D;9913;51.168;4.124;2023-06-24T04:58:21;16.51;82.01
19536;HTU21D;9913;51.168;4.124;2023-06-24T05:00:51;16.49;81.63
19536;HTU21D;9913;51.168;4.124;2023-06-24T05:03:20;16.44;82.06
19536;HTU21D;9913;51.168;4.124;2023-06-24T05:05:49;16.49;82.29
19536;HTU21D;9913;51.168;4.124;2023-06-24T05:08:17;16.59;82.09
19536;HTU21D;9913;51.168;4.124;2023-06-24T05:10:45;16.63;81.55
19536;HTU21D;9913;51.168;4.124;2023-06-24T05:13:14;16.74;82.14
19536;HTU21D;9913;51.168;4.124;2023-06-24T05:15:42;16.74;82.10
19536;HTU21D;9913;51.168;4.124;2023-06-24T05:18:12;16.87;81.95
19536;HTU21D;9913;51.168;4.124;2023-06-24T05:20:40;16.99;81.28
19536;HTU21D;9913;51.168;4.124;2023-06-24T05:23:08;16.79;80.73
19536;HTU21D;9913;51.168;4.124;2023-06-24T05:25:36;16.99;81.26
19536;HTU21D;9913;51.168;4.124;2023-06-24T05:28:05;17.00;81.52
19536;HTU21D;9913;51.168;4.124;2023-06-24T05:30:33;17.16;81.37
19536;HTU21D;9913;51.168;4.124;2023-06-24T05:33:01;17.11;81.42
19536;HTU21D;9913;51.168;4.124;2023-06-24T05:35:31;17.28;81.20
19536;HTU21D;9913;51.168;4.124;2023-06-24T05:38:00;17.31;81.08
19536;HTU21D;9913;51.168;4.124;2023-06-24T05:40:28;17.47;81.16
19536;HTU21D;9913;51.168;4.124;2023-06-24T05:42:56;17.44;80.70
19536;HTU21D;9913;51.168;4.124;2023-06-24T05:45:25;17.55;80.89
19536;HTU21D;9913;51.168;4.124;2023-06-24T05:47:53;17.60;80.59
19536;HTU21D;9913;51.168;4.124;2023-06-24T05:50:21;17.59;80.97
19536;HTU21D;9913;51.168;4.124;2023-06-24T05:52:51;17.61;80.98
19536;HTU21D;9913;51.168;4.124;2023-06-24T05:55:19;17.55;80.53
19536;HTU21D;9913;51.168;4.124;2023-06-24T05:57:48;17.69;80.78
19536;HTU21D;9913;51.168;4.124;2023-06-24T06:00:17;17.64;80.69
19536;HTU21D;9913;51.168;4.124;2023-06-24T06:02:46;17.82;80.43
19536;HTU21D;9913;51.168;4.124;2023-06-24T06:05:14;17.83;80.83
19536;HTU21D;9913;51.168;4.124;2023-06-24T06:07:43;17.98;81.08
19536;HTU21D;9913;51.168;4.124;2023-06-24T06:10:12;18.09;80.76
19536;HTU21D;9913;51.168;4.124;2023-06-24T06:12:44;17.94;80.42
19536;HTU21D;9913;51.168;4.124;2023-06-24T06:15:12;17.97;80.55
19536;HTU21D;9913;51.168;4.124;2023-06-24T06:17:40;18.17;80.43
19536;HTU21D;9913;51.168;4.124;2023-06-24T06:20:10;18.10;79.98
19536;HTU21D;9913;51.168;4.124;2023-06-24T06:22:38;18.32;80.41
19536;HTU21D;9913;51.168;4.124;2023-06-24T06:25:07;18.36;80.37
19536;HTU21D;9913;51.168;4.124;2023-06-24T06:27:37;18.38;80.17
19536;HTU21D;9913;51.168;4.124;2023-06-24T06:30:06;18.39;80.13
19536;HTU21D;9913;51.168;4.124;2023-06-24T06:32:35;18.59;79.82
19536;HTU21D;9913;51.168;4.124;2023-06-24T06:35:04;18.54;80.37
19536;HTU21D;9913;51.168;4.124;2023-06-24T06:37:32;18.50;80.16
19536;HTU21D;9913;51.168;4.124;2023-06-24T06:40:01;18.44;79.86
19536;HTU21D;9913;51.168;4.124;2023-06-24T06:42:30;18.52;79.65
19536;HTU21D;9913;51.168;4.124;2023-06-24T06:45:00;18.68;79.62
19536;HTU21D;9913;51.168;4.124;2023-06-24T06:47:28;18.82;79.56
19536;HTU21D;9913;51.168;4.124;2023-06-24T06:49:56;18.94;79.54
19536;HTU21D;9913;51.168;4.124;2023-06-24T06:52:25;18.87;79.03
19536;HTU21D;9913;51.168;4.124;2023-06-24T06:54:54;19.03;80.03
19536;HTU21D;9913;51.168;4.124;2023-06-24T06:57:23;19.07;79.08
19536;HTU21D;9913;51.168;4.124;2023-06-24T06:59:55;19.10;78.89
19536;HTU21D;9913;51.168;4.124;2023-06-24T07:02:25;19.30;79.16
19536;HTU21D;9913;51.168;4.124;2023-06-24T07:04:53;19.44;78.94
19536;HTU21D;9913;51.168;4.124;2023-06-24T07:07:22;19.29;79.04
19536;HTU21D;9913;51.168;4.124;2023-06-24T07:09:50;19.29;79.22
19536;HTU21D;9913;51.168;4.124;2023-06-24T07:12:18;19.35;78.50
19536;HTU21D;9913;51.168;4.124;2023-06-24T07:14:47;19.59;78.70
19536;HTU21D;9913;51.168;4.124;2023-06-24T07:17:16;19.46;79.01
19536;HTU21D;9913;51.168;4.124;2023-06-24T07:19:45;19.58;79.79
19536;HTU21D;9913;51.168;4.124;2023-06-24T07:22:14;19.65;78.15
19536;HTU21D;9913;51.168;4.124;2023-06-24T07:24:43;19.85;78.33
19536;HTU21D;9913;51.168;4.124;2023-06-24T07:27:11;19.79;78.72
19536;HTU21D;9913;51.168;4.124;2023-06-24T07:29:39;19.83;78.74
19536;HTU21D;9913;51.168;4.124;2023-06-24T07:32:08;19.70;78.37
19536;HTU21D;9913;51.168;4.124;2023-06-24T07:34:37;19.80;78.66
19536;HTU21D;9913;51.168;4.124;2023-06-24T07:37:06;20.06;78.87
19536;HTU21D;9913;51.168;4.124;2023-06-24T07:39:50;20.15;78.08
19536;HTU21D;9913;51.168;4.124;2023-06-24T07:42:18;20.20;79.29
19536;HTU21D;9913;51.168;4.124;2023-06-24T07:44:47;20.36;77.79
19536;HTU21D;9913;51.168;4.124;2023-06-24T07:47:18;20.49;77.79
19536;HTU21D;9913;51.168;4.124;2023-06-24T07:49:47;20.50;77.34
19536;HTU21D;9913;51.168;4.124;2023-06-24T07:52:16;20.59;77.05
19536;HTU21D;9913;51.168;4.124;2023-06-24T07:54:45;20.60;76.54
19536;HTU21D;9913;51.168;4.124;2023-06-24T07:57:13;20.81;76.73
19536;HTU21D;9913;51.168;4.124;2023-06-24T07:59:42;20.92;76.50
19536;HTU21D;9913;51.168;4.124;2023-06-24T08:02:10;21.06;75.97
19536;HTU21D;9913;51.168;4.124;2023-06-24T08:04:38;20.98;75.46
19536;HTU21D;9913;51.168;4.124;2023-06-24T08:07:07;20.91;76.13
19536;HTU21D;9913;51.168;4.124;2023-06-24T08:09:37;21.14;76.50
19536;HTU21D;9913;51.168;4.124;2023-06-24T08:12:06;21.10;76.37
19536;HTU21D;9913;51.168;4.124;2023-06-24T08:14:34;21.19;76.47
19536;HTU21D;9913;51.168;4.124;2023-06-24T08:17:03;21.33;75.00
19536;HTU21D;9913;51.168;4.124;2023-06-24T08:19:31;21.45;75.56
19536;HTU21D;9913;51.168;4.124;2023-06-24T08:22:00;21.53;75.26
19536;HTU21D;9913;51.168;4.124;2023-06-24T08:24:28;21.85;74.93
19536;HTU21D;9913;51.168;4.124;2023-06-24T08:26:58;21.44;74.80
19536;HTU21D;9913;51.168;4.124;2023-06-24T08:29:26;21.75;75.13
19536;HTU21D;9913;51.168;4.124;2023-06-24T08:31:54;21.64;74.15
19536;HTU21D;9913;51.168;4.124;2023-06-24T08:34:23;22.02;75.29
19536;HTU21D;9913;51.168;4.124;2023-06-24T08:36:53;22.06;73.90
19536;HTU21D;9913;51.168;4.124;2023-06-24T08:39:21;21.92;73.84
19536;HTU21D;9913;51.168;4.124;2023-06-24T08:41:50;21.67;73.88
19536;HTU21D;9913;51.168;4.124;2023-06-24T08:44:20;21.92;74.56
19536;HTU21D;9913;51.168;4.124;2023-06-24T08:46:48;21.95;73.88
19536;HTU21D;9913;51.168;4.124;2023-06-24T08:49:27;21.98;72.87
19536;HTU21D;9913;51.168;4.124;2023-06-24T08:52:02;22.33;74.72
19536;HTU21D;9913;51.168;4.124;2023-06-24T08:54:34;22.33;74.49
19536;HTU21D;9913;51.168;4.124;2023-06-24T08:57:03;22.36;70.84
19536;HTU21D;9913;51.168;4.124;2023-06-24T08:59:36;22.44;71.74
19536;HTU21D;9913;51.168;4.124;2023-06-24T09:02:05;22.35;70.55
19536;HTU21D;9913;51.168;4.124;2023-06-24T09:04:34;22.21;71.02
19536;HTU21D;9913;51.168;4.124;2023-06-24T09:07:03;22.80;72.87
19536;HTU21D;9913;51.168;4.124;2023-06-24T09:09:42;22.77;70.81
19536;HTU21D;9913;51.168;4.124;2023-06-24T09:12:12;22.94;71.15
19536;HTU21D;9913;51.168;4.124;2023-06-24T09:14:47;23.23;70.58
19536;HTU21D;9913;51.168;4.124;2023-06-24T09:17:16;23.34;70.48
19536;HTU21D;9913;51.168;4.124;2023-06-24T09:19:45;23.38;70.55
19536;HTU21D;9913;51.168;4.124;2023-06-24T09:22:13;23.45;69.82
19536;HTU21D;9913;51.168;4.124;2023-06-24T09:24:45;23.34;71.91
19536;HTU21D;9913;51.168;4.124;2023-06-24T09:27:15;23.57;69.59
19536;HTU21D;9913;51.168;4.124;2023-06-24T09:29:45;23.75;69.03
19536;HTU21D;9913;51.168;4.124;2023-06-24T09:32:14;23.64;69.11
19536;HTU21D;9913;51.168;4.124;2023-06-24T09:34:43;23.95;70.68
19536;HTU21D;9913;51.168;4.124;2023-06-24T09:37:20;23.86;71.26
19536;HTU21D;9913;51.168;4.124;2023-06-24T09:39:49;24.24;70.15
19536;HTU21D;9913;51.168;4.124;2023-06-24T09:42:20;23.91;67.82
19536;HTU21D;9913;51.168;4.124;2023-06-24T09:44:54;24.36;71.08
19536;HTU21D;9913;51.168;4.124;2023-06-24T09:47:23;24.08;70.08
19536;HTU21D;9913;51.168;4.124;2023-06-24T09:49:54;24.28;68.70
19536;HTU21D;9913;51.168;4.124;2023-06-24T09:52:27;24.27;69.08
19536;HTU21D;9913;51.168;4.124;2023-06-24T09:55:03;24.14;67.85
19536;HTU21D;9913;51.168;4.124;2023-06-24T09:57:32;24.11;67.65
19536;HTU21D;9913;51.168;4.124;2023-06-24T10:00:04;24.60;68.84
19536;HTU21D;9913;51.168;4.124;2023-06-24T10:02:33;24.83;67.40
19536;HTU21D;9913;51.168;4.124;2023-06-24T10:05:03;24.87;68.22
19536;HTU21D;9913;51.168;4.124;2023-06-24T10:07:31;25.04;66.92
19536;HTU21D;9913;51.168;4.124;2023-06-24T10:10:03;25.12;66.10
19536;HTU21D;9913;51.168;4.124;2023-06-24T10:12:31;24.87;95.47
19536;HTU21D;9913;51.168;4.124;2023-06-24T10:15:00;25.17;101.48
19536;HTU21D;9913;51.168;4.124;2023-06-24T10:17:32;25.23;103.95
19536;HTU21D;9913;51.168;4.124;2023-06-24T10:20:04;25.24;96.75
19536;HTU21D;9913;51.168;4.124;2023-06-24T10:22:33;25.12;98.46
19536;HTU21D;9913;51.168;4.124;2023-06-24T10:25:06;25.52;97.80
19536;HTU21D;9913;51.168;4.124;2023-06-24T10:27:44;25.45;98.77
19536;HTU21D;9913;51.168;4.124;2023-06-24T10:30:17;25.28;98.24
19536;HTU21D;9913;51.168;4.124;2023-06-24T10:32:51;25.72;100.92
19536;HTU21D;9913;51.168;4.124;2023-06-24T10:35:24;25.25;96.73
19536;HTU21D;9913;51.168;4.124;2023-06-24T10:37:57;25.24;95.00
19536;HTU21D;9913;51.168;4.124;2023-06-24T10:40:36;25.46;98.75
19536;HTU21D;9913;51.168;4.124;2023-06-24T10:43:23;25.89;97.00
19536;HTU21D;9913;51.168;4.124;2023-06-24T10:45:53;25.93;93.87
19536;HTU21D;9913;51.168;4.124;2023-06-24T10:48:23;25.75;97.43
19536;HTU21D;9913;51.168;4.124;2023-06-24T10:50:52;26.05;95.78
19536;HTU21D;9913;51.168;4.124;2023-06-24T10:53:21;25.98;95.41
19536;HTU21D;9913;51.168;4.124;2023-06-24T10:55:50;25.88;96.95
19536;HTU21D;9913;51.168;4.124;2023-06-24T10:58:18;25.93;96.97
19536;HTU21D;9913;51.168;4.124;2023-06-24T11:00:47;25.88;97.78
19536;HTU21D;9913;51.168;4.124;2023-06-24T11:03:17;26.33;97.11
19536;HTU21D;9913;51.168;4.124;2023-06-24T11:05:48;26.65;98.13
19536;HTU21D;9913;51.168;4.124;2023-06-24T11:08:17;26.60;97.32
19536;HTU21D;9913;51.168;4.124;2023-06-24T11:10:46;26.34;101.30
19536;HTU21D;9913;51.168;4.124;2023-06-24T11:13:15;26.35;96.64
19536;HTU21D;9913;51.168;4.124;2023-06-24T11:15:43;26.46;96.42
19536;HTU21D;9913;51.168;4.124;2023-06-24T11:18:11;26.53;93.66
19536;HTU21D;9913;51.168;4.124;2023-06-24T11:20:40;26.43;88.48
19536;HTU21D;9913;51.168;4.124;2023-06-24T11:23:11;26.51;93.26
19536;HTU21D;9913;51.168;4.124;2023-06-24T11:25:40;27.15;96.65
19536;HTU21D;9913;51.168;4.124;2023-06-24T11:28:14;26.93;86.67
19536;HTU21D;9913;51.168;4.124;2023-06-24T11:30:43;27.07;92.41
19536;HTU21D;9913;51.168;4.124;2023-06-24T11:33:12;26.90;90.87
19536;HTU21D;9913;51.168;4.124;2023-06-24T11:35:40;27.25;90.38
19536;HTU21D;9913;51.168;4.124;2023-06-24T11:38:12;27.19;92.10
19536;HTU21D;9913;51.168;4.124;2023-06-24T11:40:40;26.94;93.59
19536;HTU21D;9913;51.168;4.124;2023-06-24T11:43:08;27.36;91.60
19536;HTU21D;9913;51.168;4.124;2023-06-24T11:45:37;27.09;93.96
19536;HTU21D;9913;51.168;4.124;2023-06-24T11:48:05;27.05;91.56
19536;HTU21D;9913;51.168;4.124;2023-06-24T11:50:35;27.45;89.58
19536;HTU21D;9913;51.168;4.124;2023-06-24T11:53:04;27.42;96.41
19536;HTU21D;9913;51.168;4.124;2023-06-24T11:55:34;27.50;86.95
19536;HTU21D;9913;51.168;4.124;2023-06-24T11:58:03;27.86;89.95
19536;HTU21D;9913;51.168;4.124;2023-06-24T12:00:35;27.66;88.35
19536;HTU21D;9913;51.168;4.124;2023-06-24T12:03:05;27.74;90.23
19536;HTU21D;9913;51.168;4.124;2023-06-24T12:05:38;27.29;87.38
19536;HTU21D;9913;51.168;4.124;2023-06-24T12:08:13;27.60;91.96
19536;HTU21D;9913;51.168;4.124;2023-06-24T12:10:45;27.74;92.11
19536;HTU21D;9913;51.168;4.124;2023-06-24T12:13:13;27.27;86.00
19536;HTU21D;9913;51.168;4.124;2023-06-24T12:15:42;27.41;93.06
19536;HTU21D;9913;51.168;4.124;2023-06-24T12:18:13;27.35;85.13
19536;HTU21D;9913;51.168;4.124;2023-06-24T12:20:41;27.31;85.58
19536;HTU21D;9913;51.168;4.124;2023-06-24T12:23:11;28.08;83.83
19536;HTU21D;9913;51.168;4.124;2023-06-24T12:25:39;27.50;81.33
19536;HTU21D;9913;51.168;4.124;2023-06-24T12:28:09;27.47;84.21
19536;HTU21D;9913;51.168;4.124;2023-06-24T12:30:37;27.79;86.16
19536;HTU21D;9913;51.168;4.124;2023-06-24T12:33:05;28.11;93.15
19536;HTU21D;9913;51.168;4.124;2023-06-24T12:35:36;28.33;91.64
19536;HTU21D;9913;51.168;4.124;2023-06-24T12:38:04;28.23;85.83
19536;HTU21D;9913;51.168;4.124;2023-06-24T12:40:32;27.83;85.11
19536;HTU21D;9913;51.168;4.124;2023-06-24T12:43:01;27.52;86.22
19536;HTU21D;9913;51.168;4.124;2023-06-24T12:45:32;28.04;85.91
19536;HTU21D;9913;51.168;4.124;2023-06-24T12:48:01;28.30;83.38
19536;HTU21D;9913;51.168;4.124;2023-06-24T12:50:29;28.17;90.37
19536;HTU21D;9913;51.168;4.124;2023-06-24T12:52:59;28.67;84.39
19536;HTU21D;9913;51.168;4.124;2023-06-24T12:55:27;28.10;91.41
19536;HTU21D;9913;51.168;4.124;2023-06-24T12:57:55;28.40;89.60
19536;HTU21D;9913;51.168;4.124;2023-06-24T13:00:25;28.41;86.96
19536;HTU21D;9913;51.168;4.124;2023-06-24T13:02:55;28.32;82.58
19536;HTU21D;9913;51.168;4.124;2023-06-24T13:05:23;28.46;79.93
19536;HTU21D;9913;51.168;4.124;2023-06-24T13:07:52;28.62;79.24
19536;HTU21D;9913;51.168;4.124;2023-06-24T13:10:20;29.02;91.18
19536;HTU21D;9913;51.168;4.124;2023-06-24T13:12:49;28.62;80.71
19536;HTU21D;9913;51.168;4.124;2023-06-24T13:15:18;29.18;85.75
19536;HTU21D;9913;51.168;4.124;2023-06-24T13:17:47;28.83;77.62
19536;HTU21D;9913;51.168;4.124;2023-06-24T13:20:16;29.04;79.83
19536;HTU21D;9913;51.168;4.124;2023-06-24T13:22:45;29.05;78.37
19536;HTU21D;9913;51.168;4.124;2023-06-24T13:25:13;29.23;73.75
19536;HTU21D;9913;51.168;4.124;2023-06-24T13:27:43;28.73;72.02
19536;HTU21D;9913;51.168;4.124;2023-06-24T13:30:13;28.67;73.18
19536;HTU21D;9913;51.168;4.124;2023-06-24T13:32:42;28.84;70.71
19536;HTU21D;9913;51.168;4.124;2023-06-24T13:35:11;29.53;80.04
19536;HTU21D;9913;51.168;4.124;2023-06-24T13:37:40;29.32;79.47
19536;HTU21D;9913;51.168;4.124;2023-06-24T13:40:11;29.36;74.25
19536;HTU21D;9913;51.168;4.124;2023-06-24T13:42:39;29.32;74.21
19536;HTU21D;9913;51.168;4.124;2023-06-24T13:45:08;29.77;74.28
19536;HTU21D;9913;51.168;4.124;2023-06-24T13:47:37;29.75;74.95
19536;HTU21D;9913;51.168;4.124;2023-06-24T13:50:06;29.67;71.09
19536;HTU21D;9913;51.168;4.124;2023-06-24T13:52:34;29.53;74.00
19536;HTU21D;9913;51.168;4.124;2023-06-24T13:55:05;29.73;77.53
19536;HTU21D;9913;51.168;4.124;2023-06-24T13:57:33;29.91;71.59
19536;HTU21D;9913;51.168;4.124;2023-06-24T14:00:01;30.02;72.64
19536;HTU21D;9913;51.168;4.124;2023-06-24T14:02:38;30.45;74.94
19536;HTU21D;9913;51.168;4.124;2023-06-24T14:05:07;30.53;76.05
19536;HTU21D;9913;51.168;4.124;2023-06-24T14:07:35;31.28;70.76
19536;HTU21D;9913;51.168;4.124;2023-06-24T14:10:06;31.88;70.95
19536;HTU21D;9913;51.168;4.124;2023-06-24T14:12:34;31.90;70.93
19536;HTU21D;9913;51.168;4.124;2023-06-24T14:15:05;32.40;72.70
19536;HTU21D;9913;51.168;4.124;2023-06-24T14:17:33;31.69;72.32
19536;HTU21D;9913;51.168;4.124;2023-06-24T14:20:01;31.69;65.94
19536;HTU21D;9913;51.168;4.124;2023-06-24T14:22:30;32.03;69.55
19536;HTU21D;9913;51.168;4.124;2023-06-24T14:24:58;31.84;63.23
19536;HTU21D;9913;51.168;4.124;2023-06-24T14:27:28;32.45;65.80
19536;HTU21D;9913;51.168;4.124;2023-06-24T14:29:56;32.22;66.49
19536;HTU21D;9913;51.168;4.124;2023-06-24T14:32:25;32.75;58.25
19536;HTU21D;9913;51.168;4.124;2023-06-24T14:34:54;33.76;65.62
19536;HTU21D;9913;51.168;4.124;2023-06-24T14:37:23;33.76;61.03
19536;HTU21D;9913;51.168;4.124;2023-06-24T14:39:51;33.15;59.24
19536;HTU21D;9913;51.168;4.124;2023-06-24T14:42:19;33.53;60.93
19536;HTU21D;9913;51.168;4.124;2023-06-24T14:44:49;32.60;59.76
19536;HTU21D;9913;51.168;4.124;2023-06-24T14:47:17;32.41;57.01
19536;HTU21D;9913;51.168;4.124;2023-06-24T14:49:46;32.73;57.84
19536;HTU21D;9913;51.168;4.124;2023-06-24T14:52:14;33.90;60.17
19536;HTU21D;9913;51.168;4.124;2023-06-24T14:54:42;32.73;58.66
19536;HTU21D;9913;51.168;4.124;2023-06-24T14:57:10;31.69;60.59
19536;HTU21D;9913;51.168;4.124;2023-06-24T14:59:39;33.51;62.70
19536;HTU21D;9913;51.168;4.124;2023-06-24T15:02:11;34.34;61.53
19536;HTU21D;9913;51.168;4.124;2023-06-24T15:04:39;34.80;58.59
19536;HTU21D;9913;51.168;4.124;2023-06-24T15:07:08;35.19;56.19
19536;HTU21D;9913;51.168;4.124;2023-06-24T15:09:36;34.56;58.15
19536;HTU21D;9913;51.168;4.124;2023-06-24T15:12:05;34.21;56.25
19536;HTU21D;9913;51.168;4.124;2023-06-24T15:14:34;33.56;60.36
19536;HTU21D;9913;51.168;4.124;2023-06-24T15:17:03;35.05;61.69
19536;HTU21D;9913;51.168;4.124;2023-06-24T15:19:32;34.01;61.16
19536;HTU21D;9913;51.168;4.124;2023-06-24T15:22:01;34.53;54.96
19536;HTU21D;9913;51.168;4.124;2023-06-24T15:24:29;34.50;61.99
19536;HTU21D;9913;51.168;4.124;2023-06-24T15:26:58;34.36;54.62
19536;HTU21D;9913;51.168;4.124;2023-06-24T15:29:27;34.44;54.42
19536;HTU21D;9913;51.168;4.124;2023-06-24T15:31:55;34.42;61.23
19536;HTU21D;9913;51.168;4.124;2023-06-24T15:34:23;34.57;58.17
19536;HTU21D;9913;51.168;4.124;2023-06-24T15:36:53;33.12;56.32
19536;HTU21D;9913;51.168;4.124;2023-06-24T15:39:22;33.51;59.43
19536;HTU21D;9913;51.168;4.124;2023-06-24T15:41:50;34.16;57.95
19536;HTU21D;9913;51.168;4.124;2023-06-24T15:44:18;34.02;57.85
19536;HTU21D;9913;51.168;4.124;2023-06-24T15:46:47;34.00;57.51
19536;HTU21D;9913;51.168;4.124;2023-06-24T15:49:15;34.50;55.16